createdAt,value
2022-08-03T00:01:35.744Z,3.07
2022-08-03T00:04:02.486Z,3.41
2022-08-03T00:06:30.770Z,3.10
2022-08-03T00:09:01.134Z,3.26
2022-08-03T00:11:27.869Z,3.13
2022-08-03T00:13:54.464Z,3.06
2022-08-03T00:16:21.220Z,3.12
2022-08-03T00:18:49.704Z,2.90
2022-08-03T00:21:16.268Z,3.34
2022-08-03T00:23:51.333Z,3.64
2022-08-03T00:26:19.543Z,3.25
2022-08-03T00:28:46.055Z,3.26
2022-08-03T00:31:13.702Z,3.36
2022-08-03T00:33:59.720Z,3.18
2022-08-03T00:36:27.794Z,3.47
2022-08-03T00:38:54.626Z,3.43
2022-08-03T00:41:21.232Z,3.31
2022-08-03T00:43:47.854Z,3.38
2022-08-03T00:46:17.676Z,3.31
2022-08-03T00:48:47.318Z,3.58
2022-08-03T00:51:14.050Z,3.40
2022-08-03T00:53:41.255Z,3.55
2022-08-03T00:56:07.809Z,3.27
2022-08-03T00:58:34.602Z,3.95
2022-08-03T01:01:01.201Z,3.60
2022-08-03T01:03:27.883Z,3.24
2022-08-03T01:05:57.704Z,3.56
2022-08-03T01:08:30.286Z,3.67
2022-08-03T01:11:24.118Z,3.36
2022-08-03T01:14:18.846Z,3.72
2022-08-03T01:16:58.705Z,3.50
2022-08-03T01:22:56.345Z,3.44
2022-08-03T01:25:28.935Z,3.57
2022-08-03T01:28:14.308Z,3.73
2022-08-03T01:30:44.025Z,3.60
2022-08-03T01:33:22.594Z,3.65
2022-08-03T01:36:01.106Z,3.01
2022-08-03T01:38:32.133Z,3.59
2022-08-03T01:41:05.902Z,3.36
2022-08-03T01:44:03.041Z,3.61
2022-08-03T01:46:20.893Z,4.01
2022-08-03T01:48:49.161Z,4.35
2022-08-03T01:51:19.135Z,3.43
2022-08-03T01:53:48.376Z,3.63
2022-08-03T01:56:17.157Z,3.70
2022-08-03T01:58:46.487Z,3.99
2022-08-03T02:01:15.698Z,4.50
2022-08-03T02:04:00.284Z,3.84
2022-08-03T02:07:02.189Z,3.94
2022-08-03T02:09:19.957Z,3.90
2022-08-03T02:11:47.352Z,3.47
2022-08-03T02:14:14.956Z,3.74
2022-08-03T02:16:43.817Z,4.00
2022-08-03T02:19:11.658Z,3.79
2022-08-03T02:21:56.272Z,3.65
2022-08-03T02:24:25.323Z,3.21
2022-08-03T02:26:55.527Z,3.66
2022-08-03T02:29:38.689Z,3.49
2022-08-03T02:32:10.342Z,3.59
2022-08-03T02:34:38.301Z,3.68
2022-08-03T02:37:07.093Z,3.59
2022-08-03T02:39:35.768Z,3.43
2022-08-03T02:42:03.256Z,3.65
2022-08-03T02:44:33.154Z,3.51
2022-08-03T02:47:05.722Z,3.64
2022-08-03T02:49:42.055Z,3.04
2022-08-03T02:52:19.711Z,3.19
2022-08-03T02:54:48.767Z,3.08
2022-08-03T02:57:15.423Z,3.18
2022-08-03T02:59:43.897Z,2.98
2022-08-03T03:02:12.330Z,3.06
2022-08-03T03:04:43.161Z,3.02
2022-08-03T03:07:27.044Z,2.74
2022-08-03T03:09:56.435Z,2.86
2022-08-03T03:12:24.748Z,3.16
2022-08-03T03:14:51.366Z,3.15
2022-08-03T03:17:20.257Z,3.01
2022-08-03T03:19:49.947Z,3.02
2022-08-03T03:22:17.282Z,3.28
2022-08-03T03:24:45.850Z,2.54
2022-08-03T03:27:16.621Z,2.80
2022-08-03T03:29:44.223Z,2.88
2022-08-03T03:32:11.021Z,3.04
2022-08-03T03:34:38.063Z,2.75
2022-08-03T03:37:05.384Z,2.90
2022-08-03T03:39:32.059Z,2.74
2022-08-03T03:42:00.149Z,3.14
2022-08-03T03:44:28.096Z,2.95
2022-08-03T03:46:55.698Z,3.13
2022-08-03T03:49:22.489Z,2.92
2022-08-03T03:51:49.157Z,2.91
2022-08-03T03:54:15.789Z,3.22
2022-08-03T03:56:42.543Z,3.12
2022-08-03T03:59:09.075Z,3.25
2022-08-03T04:01:35.907Z,3.23
2022-08-03T04:04:22.395Z,3.18
2022-08-03T04:07:07.617Z,3.41
2022-08-03T04:09:55.217Z,3.38
2022-08-03T04:12:29.106Z,3.63
2022-08-03T04:14:58.096Z,3.60
2022-08-03T04:17:28.548Z,3.86
2022-08-03T04:19:57.924Z,3.61
2022-08-03T04:22:27.133Z,4.09
2022-08-03T04:25:05.744Z,4.50
2022-08-03T04:27:35.150Z,4.66
2022-08-03T04:30:04.964Z,4.80
2022-08-03T04:32:31.826Z,4.71
2022-08-03T04:34:58.747Z,4.19
2022-08-03T04:37:51.780Z,4.58
2022-08-03T04:40:22.770Z,4.86
2022-08-03T04:42:50.410Z,4.94
2022-08-03T04:45:19.530Z,4.56
2022-08-03T04:47:46.864Z,4.34
2022-08-03T04:50:17.045Z,4.34
2022-08-03T04:52:48.252Z,4.42
2022-08-03T04:55:34.556Z,4.60
2022-08-03T04:58:02.183Z,4.94
2022-08-03T05:00:28.803Z,4.91
2022-08-03T05:02:55.970Z,5.01
2022-08-03T05:05:23.004Z,5.28
2022-08-03T05:07:50.175Z,4.80
2022-08-03T05:10:17.496Z,5.18
2022-08-03T05:12:45.371Z,4.98
2022-08-03T05:15:12.607Z,4.87
2022-08-03T05:17:39.152Z,4.98
2022-08-03T05:20:06.036Z,4.67
2022-08-03T05:22:32.669Z,4.75
2022-08-03T05:25:00.731Z,4.74
2022-08-03T05:27:27.253Z,4.84
2022-08-03T05:29:53.778Z,4.68
2022-08-03T05:32:20.589Z,4.67
2022-08-03T05:34:47.269Z,4.93
2022-08-03T05:37:13.891Z,5.30
2022-08-03T05:39:40.530Z,4.73
2022-08-03T05:42:07.466Z,5.33
2022-08-03T05:44:34.209Z,4.96
2022-08-03T05:47:00.857Z,5.05
2022-08-03T05:49:27.505Z,4.74
2022-08-03T05:52:00.268Z,4.74
2022-08-03T05:54:57.170Z,5.43
2022-08-03T05:57:24.512Z,5.26
2022-08-03T05:59:54.823Z,6.04
2022-08-03T06:02:26.011Z,6.50
2022-08-03T06:04:52.506Z,6.72
2022-08-03T06:07:18.970Z,6.89
2022-08-03T06:10:35.998Z,7.21
2022-08-03T06:12:32.170Z,7.99
2022-08-03T06:14:58.806Z,8.81
2022-08-03T06:17:25.389Z,9.16
2022-08-03T06:19:53.961Z,9.15
2022-08-03T06:22:20.641Z,9.91
2022-08-03T06:24:53.385Z,9.54
2022-08-03T06:27:21.197Z,9.78
2022-08-03T06:30:03.920Z,9.43
2022-08-03T06:32:30.458Z,10.08
2022-08-03T06:34:57.059Z,10.17
2022-08-03T06:37:24.639Z,10.07
2022-08-03T06:39:51.187Z,10.37
2022-08-03T06:42:18.053Z,10.90
2022-08-03T06:44:47.201Z,11.43
2022-08-03T06:47:13.788Z,11.21
2022-08-03T06:49:41.531Z,11.75
2022-08-03T06:52:08.137Z,12.27
2022-08-03T06:54:35.721Z,12.27
2022-08-03T06:57:02.463Z,12.23
2022-08-03T07:00:09.297Z,12.63
2022-08-03T07:02:19.383Z,12.29
2022-08-03T07:04:46.731Z,11.99
2022-08-03T07:07:13.935Z,12.12
2022-08-03T07:09:40.421Z,11.95
2022-08-03T07:12:08.503Z,12.00
2022-08-03T07:14:35.084Z,13.10
2022-08-03T07:17:01.683Z,12.35
2022-08-03T07:19:31.355Z,13.26
2022-08-03T07:22:02.119Z,13.17
2022-08-03T07:24:29.178Z,13.35
2022-08-03T07:26:55.879Z,13.64
2022-08-03T07:29:22.428Z,13.85
2022-08-03T07:31:48.944Z,15.05
2022-08-03T07:34:15.467Z,14.61
2022-08-03T07:36:42.040Z,15.20
2022-08-03T07:39:15.426Z,14.86
2022-08-03T07:41:44.555Z,15.07
2022-08-03T07:44:11.045Z,15.70
2022-08-03T07:46:37.577Z,16.16
2022-08-03T07:49:04.143Z,17.08
2022-08-03T07:51:30.762Z,18.55
2022-08-03T07:53:57.798Z,17.70
2022-08-03T07:56:28.030Z,17.77
2022-08-03T07:58:55.366Z,17.26
2022-08-03T08:01:22.589Z,16.69
2022-08-03T08:03:52.622Z,16.84
2022-08-03T08:06:20.368Z,16.77
2022-08-03T08:08:47.102Z,17.27
2022-08-03T08:11:13.668Z,16.83
2022-08-03T08:13:40.349Z,16.64
2022-08-03T08:16:07.154Z,15.37
2022-08-03T08:18:34.542Z,15.25
2022-08-03T08:21:03.260Z,13.94
2022-08-03T08:23:43.413Z,13.33
2022-08-03T08:26:11.858Z,12.42
2022-08-03T08:28:38.417Z,13.09
2022-08-03T08:31:05.619Z,13.89
2022-08-03T08:34:02.779Z,13.39
2022-08-03T08:36:21.630Z,13.88
2022-08-03T08:38:48.419Z,13.69
2022-08-03T08:41:15.546Z,12.56
2022-08-03T08:43:42.454Z,12.26
2022-08-03T08:46:22.824Z,12.40
2022-08-03T08:48:51.729Z,12.77
2022-08-03T08:51:20.209Z,11.79
2022-08-03T08:53:49.688Z,11.64
2022-08-03T08:56:17.544Z,11.84
2022-08-03T08:58:50.642Z,12.11
2022-08-03T09:01:21.840Z,10.94
2022-08-03T09:03:48.719Z,10.70
2022-08-03T09:06:15.479Z,10.35
2022-08-03T09:08:42.051Z,10.48
2022-08-03T09:11:08.689Z,10.18
2022-08-03T09:13:39.115Z,10.26
2022-08-03T09:16:10.943Z,9.83
2022-08-03T09:18:37.607Z,9.67
2022-08-03T09:21:33.273Z,10.06
2022-08-03T09:24:04.266Z,9.99
2022-08-03T09:26:32.619Z,9.49
2022-08-03T09:29:09.308Z,9.55
2022-08-03T09:31:37.646Z,9.55
2022-08-03T09:34:05.770Z,9.72
2022-08-03T09:36:48.878Z,9.32
2022-08-03T09:39:41.239Z,9.34
2022-08-03T09:42:17.467Z,9.09
2022-08-03T09:44:47.164Z,8.90
2022-08-03T09:47:15.330Z,8.34
2022-08-03T09:49:43.080Z,8.25
2022-08-03T09:52:49.333Z,8.62
2022-08-03T09:56:32.565Z,8.34
2022-08-03T09:58:10.421Z,8.72
2022-08-03T10:00:56.115Z,8.45
2022-08-03T10:03:23.568Z,7.86
2022-08-03T10:05:50.216Z,7.82
2022-08-03T10:08:17.873Z,7.90
2022-08-03T10:10:46.011Z,8.16
2022-08-03T10:13:18.004Z,7.70
2022-08-03T10:16:22.504Z,8.45
2022-08-03T10:18:32.797Z,7.92
2022-08-03T10:21:03.927Z,7.79
2022-08-03T10:23:34.269Z,7.98
2022-08-03T10:26:02.933Z,7.60
2022-08-03T10:28:34.960Z,7.93
2022-08-03T10:31:03.373Z,8.02
2022-08-03T10:33:51.150Z,7.92
2022-08-03T10:36:23.178Z,8.09
2022-08-03T10:38:53.084Z,8.28
2022-08-03T10:41:21.310Z,8.02
2022-08-03T10:43:52.689Z,7.85
2022-08-03T10:46:21.300Z,7.66
2022-08-03T10:48:50.781Z,7.41
2022-08-03T10:51:17.589Z,8.01
2022-08-03T10:53:54.502Z,7.42
2022-08-03T10:56:54.675Z,6.51
2022-08-03T10:59:40.198Z,6.16
2022-08-03T11:02:09.900Z,6.31
2022-08-03T11:04:36.487Z,6.14
2022-08-03T11:07:23.109Z,6.38
2022-08-03T11:09:51.727Z,6.33
2022-08-03T11:12:29.874Z,6.30
2022-08-03T11:14:59.105Z,6.28
2022-08-03T11:17:25.855Z,5.73
2022-08-03T11:19:57.871Z,5.20
2022-08-03T11:22:25.506Z,5.37
2022-08-03T11:24:54.260Z,5.70
2022-08-03T11:27:22.820Z,5.74
2022-08-03T11:29:58.615Z,5.16
2022-08-03T11:32:37.535Z,5.24
2022-08-03T11:35:12.612Z,5.41
2022-08-03T11:38:03.234Z,4.94
2022-08-03T11:40:34.719Z,4.94
2022-08-03T11:43:01.789Z,5.64
2022-08-03T11:45:28.432Z,5.24
2022-08-03T11:47:55.770Z,5.01
2022-08-03T11:50:22.580Z,4.83
2022-08-03T11:52:49.689Z,4.66
2022-08-03T11:55:18.965Z,4.32
2022-08-03T11:59:16.954Z,4.36
2022-08-03T12:00:34.191Z,4.71
2022-08-03T12:03:02.934Z,4.63
2022-08-03T12:05:33.638Z,4.65
2022-08-03T12:08:04.758Z,4.87
2022-08-03T12:10:33.389Z,4.98
2022-08-03T12:13:00.767Z,4.65
2022-08-03T12:15:29.194Z,3.95
2022-08-03T12:17:58.016Z,4.50
2022-08-03T12:20:34.955Z,4.16
2022-08-03T12:23:06.010Z,4.37
2022-08-03T12:25:39.568Z,4.53
2022-08-03T12:28:36.673Z,4.62
2022-08-03T12:30:55.222Z,4.72
2022-08-03T12:33:23.905Z,4.90
2022-08-03T12:36:05.008Z,4.39
2022-08-03T12:38:33.420Z,3.97
2022-08-03T12:41:06.130Z,3.48
2022-08-03T12:43:39.513Z,3.78
2022-08-03T12:46:09.356Z,4.26
2022-08-03T12:48:36.033Z,4.24
2022-08-03T12:51:11.772Z,4.11
2022-08-03T12:53:38.367Z,3.90
2022-08-03T12:56:06.374Z,3.94
2022-08-03T12:58:35.181Z,3.89
2022-08-03T13:01:05.253Z,3.75
2022-08-03T13:03:42.175Z,3.85
2022-08-03T13:06:13.914Z,3.73
2022-08-03T13:08:41.138Z,3.40
2022-08-03T13:11:21.379Z,3.44
2022-08-03T13:13:48.214Z,3.23
2022-08-03T13:16:19.136Z,3.23
2022-08-03T13:18:48.785Z,3.32
2022-08-03T13:21:16.320Z,3.40
2022-08-03T13:23:43.128Z,3.59
2022-08-03T13:26:10.359Z,4.01
2022-08-03T13:28:36.973Z,4.00
2022-08-03T13:31:03.499Z,3.74
2022-08-03T13:33:30.223Z,3.59
2022-08-03T13:35:56.893Z,3.55
2022-08-03T13:38:27.052Z,3.08
2022-08-03T13:40:53.925Z,3.46
2022-08-03T13:43:22.115Z,3.85
2022-08-03T13:45:52.390Z,3.75
2022-08-03T13:48:36.925Z,3.82
2022-08-03T13:51:11.809Z,3.56
2022-08-03T13:53:49.970Z,3.28
2022-08-03T13:56:16.874Z,3.30
2022-08-03T13:58:43.414Z,3.64
2022-08-03T14:01:09.995Z,3.67
2022-08-03T14:03:36.636Z,3.36
2022-08-03T14:06:03.301Z,3.66
2022-08-03T14:08:29.995Z,3.26
2022-08-03T14:10:56.619Z,3.68
2022-08-03T14:13:23.248Z,3.46
2022-08-03T14:15:51.363Z,3.36
2022-08-03T14:18:28.322Z,3.19
2022-08-03T14:21:05.438Z,3.07
2022-08-03T14:23:33.463Z,3.46
2022-08-03T14:26:00.172Z,3.32
2022-08-03T14:28:26.712Z,3.10
2022-08-03T14:30:54.631Z,2.95
2022-08-03T14:33:22.026Z,2.97
2022-08-03T14:35:49.623Z,3.29
2022-08-03T14:38:17.250Z,3.12
2022-08-03T14:40:44.119Z,2.96
2022-08-03T14:43:10.713Z,3.01
2022-08-03T14:45:37.216Z,3.41
2022-08-03T14:50:26.520Z,3.14
2022-08-03T14:50:52.605Z,3.15
2022-08-03T14:53:19.675Z,2.41
2022-08-03T14:55:49.611Z,2.29
2022-08-03T14:58:19.778Z,2.43
2022-08-03T15:00:48.717Z,3.18
2022-08-03T15:03:16.994Z,3.18
2022-08-03T15:05:44.683Z,3.20
2022-08-03T15:08:11.748Z,2.98
2022-08-03T15:10:43.757Z,3.02
2022-08-03T15:13:12.063Z,2.94
2022-08-03T15:15:38.584Z,2.75
2022-08-03T15:18:05.124Z,2.59
2022-08-03T15:20:43.285Z,3.48
2022-08-03T15:23:10.777Z,2.44
2022-08-03T15:26:32.314Z,2.73
2022-08-03T15:28:23.878Z,2.48
2022-08-03T15:30:52.011Z,1.92
2022-08-03T15:33:18.594Z,1.75
2022-08-03T15:35:46.449Z,2.07
2022-08-03T15:38:13.179Z,2.00
2022-08-03T15:40:40.077Z,2.07
2022-08-03T15:43:06.827Z,1.78
2022-08-03T15:45:35.448Z,1.97
2022-08-03T15:48:04.001Z,1.60
2022-08-03T15:50:30.560Z,1.67
2022-08-03T15:52:57.165Z,1.74
2022-08-03T15:55:23.998Z,1.83
2022-08-03T15:59:04.173Z,1.85
2022-08-03T16:00:37.683Z,1.80
2022-08-03T16:03:04.716Z,1.61
2022-08-03T16:05:31.389Z,1.67
2022-08-03T16:08:02.520Z,1.52
2022-08-03T16:10:31.383Z,2.49
2022-08-03T16:13:00.686Z,2.93
2022-08-03T16:15:27.602Z,1.80
2022-08-03T16:17:54.576Z,2.13
2022-08-03T16:20:31.295Z,3.02
2022-08-03T16:23:09.154Z,2.54
2022-08-03T16:25:37.960Z,2.21
2022-08-03T16:28:07.757Z,2.66
2022-08-03T16:30:40.439Z,4.11
2022-08-03T16:33:06.966Z,3.36
2022-08-03T16:35:33.579Z,2.01
2022-08-03T16:38:00.224Z,1.62
2022-08-03T16:40:26.882Z,1.58
2022-08-03T16:42:53.462Z,1.89
2022-08-03T16:45:20.166Z,1.91
2022-08-03T16:47:46.727Z,1.99
2022-08-03T16:50:19.759Z,1.69
2022-08-03T16:52:48.320Z,1.87
2022-08-03T16:55:16.062Z,1.78
2022-08-03T16:58:02.815Z,1.76
2022-08-03T17:00:33.776Z,1.63
2022-08-03T17:03:18.915Z,1.74
2022-08-03T17:05:49.748Z,1.72
2022-08-03T17:08:26.300Z,1.71
2022-08-03T17:10:53.698Z,1.86
2022-08-03T17:13:21.834Z,1.92
2022-08-03T17:16:00.992Z,1.97
2022-08-03T17:18:32.436Z,2.02
2022-08-03T17:21:03.418Z,2.13
2022-08-03T17:23:45.093Z,1.96
2022-08-03T17:26:21.311Z,1.79
2022-08-03T17:28:57.825Z,1.99
2022-08-03T17:31:31.302Z,1.86
2022-08-03T17:34:00.481Z,1.81
2022-08-03T17:36:47.690Z,1.94
2022-08-03T17:39:30.933Z,1.95
2022-08-03T17:42:05.391Z,1.86
2022-08-03T17:44:53.101Z,1.81
2022-08-03T17:47:19.662Z,1.89
2022-08-03T17:49:48.519Z,2.02
2022-08-03T17:52:28.724Z,2.00
2022-08-03T17:55:06.968Z,1.83
2022-08-03T17:58:02.658Z,1.68
2022-08-03T18:00:51.728Z,1.94
2022-08-03T18:03:26.399Z,1.68
2022-08-03T18:06:10.670Z,1.67
2022-08-03T18:08:43.832Z,1.61
2022-08-03T18:11:15.195Z,1.89
2022-08-03T18:14:15.965Z,1.93
2022-08-03T18:16:52.714Z,1.81
2022-08-03T18:19:21.613Z,1.61
2022-08-03T18:22:09.986Z,2.12
2022-08-03T18:24:38.331Z,1.85
2022-08-03T18:27:06.584Z,1.78
2022-08-03T18:29:37.071Z,1.87
2022-08-03T18:32:13.277Z,1.74
2022-08-03T18:34:53.362Z,1.74
2022-08-03T18:37:25.156Z,1.87
2022-08-03T18:39:54.976Z,1.68
2022-08-03T18:42:25.837Z,1.97
2022-08-03T18:44:56.669Z,1.88
2022-08-03T18:47:52.480Z,2.14
2022-08-03T18:50:27.614Z,1.82
2022-08-03T18:53:15.749Z,1.90
2022-08-03T18:56:02.119Z,2.11
2022-08-03T18:58:34.937Z,1.93
2022-08-03T19:01:15.466Z,1.75
2022-08-03T19:04:04.081Z,1.87
2022-08-03T19:06:31.825Z,1.68
2022-08-03T19:09:09.635Z,1.90
2022-08-03T19:12:13.126Z,2.06
2022-08-03T19:14:35.031Z,1.87
2022-08-03T19:17:08.635Z,1.60
2022-08-03T19:22:23.060Z,1.94
2022-08-03T19:24:52.969Z,1.87
2022-08-03T19:27:26.806Z,1.87
2022-08-03T19:29:59.048Z,1.78
2022-08-03T19:32:29.152Z,2.00
2022-08-03T19:34:56.875Z,1.86
2022-08-03T19:37:27.530Z,2.03
2022-08-03T19:40:05.710Z,2.06
2022-08-03T19:42:40.343Z,2.12
2022-08-03T19:45:13.794Z,2.07
2022-08-03T19:47:43.767Z,1.73
2022-08-03T19:50:13.939Z,2.02
2022-08-03T19:52:43.828Z,2.07
2022-08-03T19:55:12.448Z,2.21
2022-08-03T19:57:42.247Z,1.99
2022-08-03T20:00:12.264Z,2.02
2022-08-03T20:02:40.980Z,1.78
2022-08-03T20:05:14.872Z,1.93
2022-08-03T20:07:42.579Z,2.06
2022-08-03T20:10:16.091Z,2.05
2022-08-03T20:12:43.924Z,2.15
2022-08-03T20:15:11.180Z,2.31
2022-08-03T20:17:56.087Z,2.15
2022-08-03T20:20:33.024Z,2.02
2022-08-03T20:23:00.731Z,2.18
2022-08-03T20:25:38.753Z,2.15
2022-08-03T20:28:14.760Z,2.28
2022-08-03T20:30:44.296Z,2.21
2022-08-03T20:33:11.312Z,2.09
2022-08-03T20:35:37.940Z,2.06
2022-08-03T20:38:12.337Z,2.20
2022-08-03T20:40:39.280Z,2.01
2022-08-03T20:43:09.400Z,2.00
2022-08-03T20:46:00.112Z,2.09
2022-08-03T20:48:25.537Z,1.97
2022-08-03T20:50:54.309Z,2.18
2022-08-03T20:53:22.139Z,2.05
2022-08-03T20:56:11.445Z,2.27
2022-08-03T20:58:41.874Z,2.20
2022-08-03T21:01:09.138Z,2.35
2022-08-03T21:03:40.558Z,2.28
2022-08-03T21:06:10.437Z,2.30
2022-08-03T21:08:46.851Z,2.36
2022-08-03T21:11:19.524Z,2.28
2022-08-03T21:13:01.993Z,1.85
2022-08-03T21:13:55.693Z,2.55
2022-08-03T21:16:26.881Z,2.24
2022-08-03T21:18:53.919Z,2.52
2022-08-03T21:21:22.707Z,2.36
2022-08-03T21:23:51.142Z,2.28
2022-08-03T21:26:19.313Z,2.29
2022-08-03T21:28:47.409Z,2.36
2022-08-03T21:31:14.677Z,2.22
2022-08-03T21:33:52.893Z,2.33
2022-08-03T21:36:19.626Z,2.32
2022-08-03T21:38:55.800Z,2.36
2022-08-03T21:41:23.843Z,2.36
2022-08-03T21:43:50.461Z,2.23
2022-08-03T21:46:18.962Z,2.29
2022-08-03T21:48:47.767Z,2.40
2022-08-03T21:51:17.409Z,2.41
2022-08-03T21:54:03.900Z,2.48
2022-08-03T21:56:47.374Z,2.49
2022-08-03T21:59:16.975Z,2.56
2022-08-03T22:01:45.650Z,2.35
2022-08-03T22:04:34.372Z,2.44
2022-08-03T22:07:04.339Z,2.40
2022-08-03T22:09:31.259Z,2.47
2022-08-03T22:11:57.833Z,2.62
2022-08-03T22:14:24.669Z,2.68
2022-08-03T22:16:51.383Z,2.55
2022-08-03T22:19:17.938Z,2.78
2022-08-03T22:21:47.435Z,2.87
2022-08-03T22:24:16.306Z,2.89
2022-08-03T22:27:02.807Z,3.07
2022-08-03T22:29:32.732Z,3.24
2022-08-03T22:31:59.646Z,2.80
2022-08-03T22:34:27.598Z,3.01
2022-08-03T22:36:57.199Z,2.92
2022-08-03T22:39:28.708Z,2.80
2022-08-03T22:41:58.528Z,2.91
2022-08-03T22:44:26.379Z,2.75
2022-08-03T22:46:53.298Z,3.20
2022-08-03T22:49:20.683Z,3.18
2022-08-03T22:51:47.469Z,3.23
2022-08-03T22:54:14.518Z,3.26
2022-08-03T22:56:41.416Z,3.02
2022-08-03T22:59:39.862Z,3.12
2022-08-03T23:02:00.690Z,3.27
2022-08-03T23:04:30.678Z,3.28
2022-08-03T23:07:02.210Z,3.17
2022-08-03T23:09:31.106Z,2.95
2022-08-03T23:12:00.550Z,3.27
2022-08-03T23:14:30.208Z,3.06
2022-08-03T23:17:01.577Z,3.26
2022-08-03T23:19:30.257Z,3.03
2022-08-03T23:22:04.002Z,3.28
2022-08-03T23:24:36.244Z,3.04
2022-08-03T23:27:04.106Z,2.95
2022-08-03T23:29:31.609Z,3.18
2022-08-03T23:31:59.464Z,2.92
2022-08-03T23:34:45.674Z,3.26
2022-08-03T23:37:15.686Z,3.24
2022-08-03T23:39:46.094Z,3.24
2022-08-03T23:42:19.009Z,3.18
2022-08-03T23:44:46.197Z,3.48
2022-08-03T23:47:13.838Z,3.39
2022-08-03T23:49:40.444Z,3.26
2022-08-03T23:52:15.779Z,3.18
2022-08-03T23:55:02.878Z,3.22
2022-08-03T23:57:33.144Z,3.48
